Portada
METAR-TAF:

METAR-TAF

Aeroports :

Srinagar, Índia

latitud: 33-59-14N, longitud: 074-46-27E, altitud: 1655 m

METAR: manca

Hora: 05:39 (00:09 UTC)

Pronòstic

L'informe es va fer fa 8 hores i 39 minuts, a les 15:30 UTC
Pronòstic vàlid del 21 a les 18 UTC al 22 a les 06 UTC
Vent 5 kt del Oest/Sud-Oest
Visibilitat: 1500 m
Núvols disperses a una alçada de 1500 ft
Cel ennuvolat a una alçada de 3000 ft
Cel ennuvolat a una alçada de 8000 ft
pluja, boirina
Temporalment
l' 22 a les 00 UTC al 22 a les 04 UTC
Núvols disperses a una alçada de 1200 ft
Núvols disperses a una alçada de 1500 ft
Cel ennuvolat a una alçada de 3000 ft
pluja, boira

TAF: VISR 211530Z 2118/2206 25005KT 1500 -RABR SCT015 BKN030 BKN080 TEMPO 2200/2204 800 RAFG SCT012 SCT015 BKN030

Observacions i pronòstics meteorològics de més de 4000 aeroports (METAR i TAF).

Les estacions disponibles són els punts grocs i vermells al mapa.

Posi el ratolí al punt desitjat per veure el nom de l'estació.

Feu clic per veure les observacions i els pronòstics meteorològics.

Per canviar el mapa: feu clic els botons verds amb una creu de color negre per apropar; al botó verd amb un guió per allunyar la imatge; o en les fletxes verdes per a mapes adjacents.


METAR-TAF: